createdAt,value
2022-07-25T00:00:16.392Z,23.80
2022-07-25T00:05:40.964Z,23.60
2022-07-25T00:11:04.225Z,23.50
2022-07-25T00:16:30.147Z,23.50
2022-07-25T00:21:53.623Z,24.70
2022-07-25T00:27:17.252Z,23.50
2022-07-25T00:32:41.789Z,23.40
2022-07-25T00:38:05.353Z,23.20
2022-07-25T00:43:28.896Z,23.10
2022-07-25T00:48:53.711Z,23.00
2022-07-25T00:54:17.694Z,22.90
2022-07-25T00:59:41.285Z,22.70
2022-07-25T01:05:07.712Z,22.60
2022-07-25T01:10:34.485Z,22.60
2022-07-25T01:15:58.108Z,22.30
2022-07-25T01:21:24.828Z,22.10
2022-07-25T01:26:48.579Z,22.40
2022-07-25T01:32:13.244Z,21.90
2022-07-25T01:37:38.952Z,21.80
2022-07-25T01:43:02.376Z,21.80
2022-07-25T01:48:25.783Z,21.70
2022-07-25T01:53:51.041Z,21.60
2022-07-25T01:59:15.009Z,21.60
2022-07-25T02:04:38.646Z,21.60
2022-07-25T02:10:04.075Z,21.50
2022-07-25T02:15:28.055Z,21.50
2022-07-25T02:20:53.818Z,21.80
2022-07-25T02:26:19.083Z,22.80
2022-07-25T02:31:43.048Z,21.80
2022-07-25T02:37:09.708Z,21.80
2022-07-25T02:42:36.921Z,21.80
2022-07-25T02:48:00.480Z,21.70
2022-07-25T02:53:40.226Z,21.80
2022-07-25T02:59:08.939Z,21.90
2022-07-25T03:04:32.155Z,21.80
2022-07-25T03:09:56.158Z,21.80
2022-07-25T03:15:20.749Z,21.70
2022-07-25T03:20:44.125Z,21.50
2022-07-25T03:26:08.002Z,21.50
2022-07-25T03:31:32.888Z,22.40
2022-07-25T03:36:56.378Z,21.40
2022-07-25T04:37:49.045Z,20.90
2022-07-25T05:03:49.881Z,22.40
2022-07-25T05:57:36.839Z,21.30
2022-07-25T10:06:26.391Z,30.60
2022-07-25T10:26:26.226Z,28.80
2022-07-25T10:39:27.072Z,35.30
2022-07-25T10:45:38.076Z,34.60
2022-07-25T10:51:24.098Z,33.60
2022-07-25T10:57:05.828Z,37.10
2022-07-25T11:02:35.432Z,37.50
2022-07-25T11:08:21.160Z,36.40
2022-07-25T11:33:49.165Z,36.50
2022-07-25T11:39:50.462Z,36.10
2022-07-25T11:45:38.007Z,35.20
2022-07-25T11:51:42.750Z,30.80
2022-07-25T11:57:44.242Z,32.90
2022-07-25T12:08:55.313Z,33.60
2022-07-25T12:14:20.662Z,32.60
2022-07-25T12:19:48.282Z,30.60
2022-07-25T12:25:20.169Z,31.70
2022-07-25T12:30:58.512Z,31.60
2022-07-25T12:36:22.405Z,32.60
2022-07-25T12:41:54.408Z,30.20
2022-07-25T12:47:29.623Z,31.30
2022-07-25T12:52:53.382Z,32.20
2022-07-25T13:05:30.655Z,29.50
2022-07-25T13:10:57.764Z,31.30
2022-07-25T13:16:31.398Z,30.70
2022-07-25T13:22:00.405Z,32.20
2022-07-25T13:27:29.105Z,32.10
2022-07-25T13:32:56.480Z,32.30
2022-07-25T13:38:29.256Z,32.30
2022-07-25T13:44:04.560Z,32.00
2022-07-25T13:49:37.199Z,31.20
2022-07-25T13:55:41.341Z,31.50
2022-07-25T14:07:17.691Z,30.50
2022-07-25T14:12:45.494Z,30.00
2022-07-25T14:18:14.626Z,29.30
2022-07-25T14:24:05.427Z,29.20
2022-07-25T14:29:48.570Z,30.00
2022-07-25T14:56:12.023Z,29.30
2022-07-25T15:02:26.242Z,29.40
2022-07-25T15:07:58.203Z,28.90
2022-07-25T15:13:31.397Z,26.70
2022-07-25T15:19:48.654Z,27.90
2022-07-25T15:31:21.739Z,27.60
2022-07-25T15:36:49.333Z,29.10
2022-07-25T15:42:46.388Z,28.30
2022-07-25T15:48:31.213Z,25.50
2022-07-25T15:54:29.254Z,24.90
2022-07-25T16:06:04.576Z,23.50
2022-07-25T16:11:41.591Z,28.00
2022-07-25T16:17:17.264Z,26.70
2022-07-25T16:23:29.867Z,28.00
2022-07-25T16:36:03.081Z,24.80
2022-07-25T16:41:42.059Z,23.40
2022-07-25T16:47:05.757Z,27.10
2022-07-25T16:52:51.098Z,26.90
2022-07-25T16:58:14.625Z,24.40
2022-07-25T17:03:39.041Z,26.50
2022-07-25T17:09:11.948Z,27.00
2022-07-25T17:14:35.899Z,24.90
2022-07-25T17:20:00.173Z,27.30
2022-07-25T17:25:25.812Z,27.50
2022-07-25T17:30:49.325Z,27.20
2022-07-25T17:36:12.952Z,27.00
2022-07-25T17:41:38.033Z,26.70
2022-07-25T17:47:03.311Z,26.30
2022-07-25T17:52:26.737Z,26.50
2022-07-25T17:57:54.562Z,26.60
2022-07-25T18:03:19.734Z,26.20
2022-07-25T18:08:43.766Z,26.10
2022-07-25T18:14:09.195Z,25.80
2022-07-25T18:19:33.498Z,25.80
2022-07-25T18:24:57.534Z,25.20
2022-07-25T18:30:29.002Z,24.90
2022-07-25T18:35:53.247Z,24.80
2022-07-25T18:41:29.243Z,24.80
2022-07-25T18:47:00.085Z,24.60
2022-07-25T18:52:25.198Z,24.40
2022-07-25T18:57:49.151Z,24.30
2022-07-25T19:03:14.302Z,24.00
2022-07-25T19:22:47.362Z,23.80
2022-07-25T20:16:42.270Z,21.20
2022-07-25T20:23:10.443Z,20.30
2022-07-25T20:55:33.331Z,22.10
2022-07-25T21:07:59.458Z,19.30
2022-07-25T21:13:23.595Z,22.30
2022-07-25T21:18:48.639Z,22.20
2022-07-25T21:24:18.994Z,22.00
2022-07-25T21:29:43.935Z,21.80
2022-07-25T21:35:08.416Z,21.70
2022-07-25T21:40:34.630Z,21.90
2022-07-25T21:45:58.459Z,21.60
2022-07-25T21:51:24.487Z,21.50
2022-07-25T21:56:49.305Z,21.80
2022-07-25T22:02:13.528Z,21.30
2022-07-25T22:07:37.310Z,21.20
2022-07-25T22:13:04.241Z,21.00
2022-07-25T22:18:28.058Z,21.10
2022-07-25T22:23:53.187Z,20.90
2022-07-25T22:29:20.406Z,20.90
2022-07-25T22:34:43.925Z,20.90
2022-07-25T22:40:08.173Z,20.70
2022-07-25T22:45:34.381Z,20.70
2022-07-25T22:50:57.896Z,20.80
2022-07-25T22:56:21.965Z,20.90
2022-07-25T23:01:46.669Z,20.60
2022-07-25T23:07:09.880Z,20.60
2022-07-25T23:12:33.332Z,20.50
2022-07-25T23:17:57.933Z,20.70
2022-07-25T23:23:21.266Z,20.60
2022-07-25T23:28:44.950Z,20.40
2022-07-25T23:34:09.990Z,20.20
2022-07-25T23:39:33.681Z,20.20
2022-07-25T23:44:57.044Z,20.30
2022-07-25T23:50:25.510Z,20.40
2022-07-25T23:55:49.285Z,20.50
